createdAt,value
2023-01-01T00:00:28.077Z,48.17
2023-01-01T00:02:54.887Z,39.67
2023-01-01T00:05:21.609Z,29.52
2023-01-01T00:07:48.375Z,48.38
2023-01-01T00:10:30.345Z,38.83
2023-01-01T00:12:58.121Z,23.48
2023-01-01T00:15:25.701Z,11.38
2023-01-01T00:17:52.785Z,18.70
2023-01-01T00:20:19.599Z,17.23
2023-01-01T00:22:55.556Z,8.07
2023-01-01T00:25:24.429Z,6.97
2023-01-01T00:27:51.584Z,6.60
2023-01-01T00:30:18.568Z,6.90
2023-01-01T00:32:56.132Z,11.13
2023-01-01T00:35:26.661Z,10.68
2023-01-01T00:37:55.189Z,12.98
2023-01-01T00:40:22.442Z,13.35
2023-01-01T00:42:49.302Z,12.07
2023-01-01T00:45:21.366Z,11.07
2023-01-01T00:47:55.664Z,42.78
2023-01-01T00:50:23.109Z,40.63
2023-01-01T00:52:50.209Z,38.30
2023-01-01T00:55:17.219Z,25.77
2023-01-01T00:57:44.093Z,23.48
2023-01-01T01:00:11.764Z,32.38
2023-01-01T01:02:38.902Z,47.33
2023-01-01T01:05:06.327Z,44.15
2023-01-01T01:07:37.461Z,53.95
2023-01-01T01:10:04.832Z,44.33
2023-01-01T01:12:33.099Z,37.95
2023-01-01T01:14:59.906Z,42.70
2023-01-01T01:17:26.762Z,38.88
2023-01-01T01:19:53.630Z,35.60
2023-01-01T01:22:25.987Z,29.75
2023-01-01T01:24:55.096Z,29.08
2023-01-01T01:27:21.861Z,25.88
2023-01-01T01:29:48.745Z,25.08
2023-01-01T01:32:15.579Z,23.65
2023-01-01T01:34:42.792Z,24.40
2023-01-01T01:37:09.570Z,23.20
2023-01-01T01:39:36.390Z,22.08
2023-01-01T01:42:03.807Z,21.23
2023-01-01T01:44:46.358Z,20.38
2023-01-01T01:47:31.951Z,18.83
2023-01-01T01:50:08.888Z,17.85
2023-01-01T01:52:39.822Z,18.23
2023-01-01T01:55:09.172Z,17.75
2023-01-01T01:57:38.761Z,19.50
2023-01-01T02:00:10.969Z,21.52
2023-01-01T02:02:59.683Z,20.55
2023-01-01T02:05:27.279Z,21.15
2023-01-01T02:07:55.114Z,20.65
2023-01-01T02:10:22.301Z,21.23
2023-01-01T02:12:49.271Z,21.10
2023-01-01T02:15:16.323Z,20.70
2023-01-01T02:17:52.178Z,19.65
2023-01-01T02:20:38.213Z,20.15
2023-01-01T02:23:43.099Z,18.30
2023-01-01T02:26:39.755Z,18.48
2023-01-01T02:29:28.802Z,18.90
2023-01-01T02:32:04.645Z,20.15
2023-01-01T02:34:38.187Z,20.65
2023-01-01T02:37:08.739Z,20.13
2023-01-01T02:39:39.438Z,20.92
2023-01-01T02:42:08.094Z,18.90
2023-01-01T02:44:39.866Z,19.38
2023-01-01T02:47:14.971Z,18.58
2023-01-01T02:49:55.345Z,18.92
2023-01-01T02:52:42.624Z,17.73
2023-01-01T02:55:46.431Z,16.90
2023-01-01T02:58:51.076Z,17.10
2023-01-01T03:01:26.980Z,15.70
2023-01-01T03:04:31.707Z,15.52
2023-01-01T03:07:20.529Z,14.35
2023-01-01T03:10:04.078Z,14.13
2023-01-01T03:12:45.191Z,13.20
2023-01-01T03:15:29.065Z,14.00
2023-01-01T03:18:07.218Z,13.23
2023-01-01T03:20:37.217Z,13.45
2023-01-01T03:23:09.411Z,13.68
2023-01-01T03:25:47.032Z,14.02
2023-01-01T03:28:23.749Z,13.52
2023-01-01T03:30:52.659Z,12.50
2023-01-01T03:33:41.655Z,12.98
2023-01-01T03:36:24.984Z,13.73
2023-01-01T03:39:02.088Z,13.73
2023-01-01T03:41:56.075Z,12.05
2023-01-01T03:44:41.598Z,11.90
2023-01-01T03:47:08.408Z,13.35
2023-01-01T03:49:35.555Z,11.50
2023-01-01T03:52:19.970Z,11.18
2023-01-01T03:55:12.277Z,12.07
2023-01-01T03:58:07.178Z,11.75
2023-01-01T04:00:37.853Z,12.02
2023-01-01T04:03:17.175Z,13.00
2023-01-01T04:05:44.545Z,12.25
2023-01-01T04:08:12.404Z,12.73
2023-01-01T04:10:44.467Z,13.50
2023-01-01T04:13:11.328Z,14.50
2023-01-01T04:15:38.185Z,15.00
2023-01-01T04:18:05.104Z,14.63
2023-01-01T04:20:32.302Z,16.17
2023-01-01T04:23:00.445Z,18.88
2023-01-01T04:25:27.993Z,17.60
2023-01-01T04:27:58.341Z,17.40
2023-01-01T04:30:25.720Z,16.23
2023-01-01T04:32:52.572Z,17.35
2023-01-01T04:35:19.373Z,16.88
2023-01-01T04:37:46.322Z,18.50
2023-01-01T04:40:14.518Z,17.85
2023-01-01T04:42:41.411Z,17.20
2023-01-01T04:45:08.874Z,16.92
2023-01-01T04:47:35.720Z,17.40
2023-01-01T04:50:02.501Z,16.02
2023-01-01T04:52:29.256Z,17.10
2023-01-01T04:54:55.988Z,17.15
2023-01-01T04:57:22.952Z,18.20
2023-01-01T04:59:49.773Z,17.48
2023-01-01T05:02:16.652Z,18.45
2023-01-01T05:04:44.511Z,17.23
2023-01-01T05:07:11.518Z,18.80
2023-01-01T05:09:38.377Z,18.35
2023-01-01T05:12:05.410Z,18.88
2023-01-01T05:14:32.125Z,18.75
2023-01-01T05:16:58.980Z,18.10
2023-01-01T05:19:25.729Z,18.85
2023-01-01T05:21:54.061Z,18.73
2023-01-01T05:24:20.818Z,18.60
2023-01-01T05:26:47.954Z,20.15
2023-01-01T05:29:16.975Z,20.38
2023-01-01T05:31:45.429Z,19.23
2023-01-01T05:34:12.760Z,18.65
2023-01-01T05:36:39.645Z,17.00
2023-01-01T05:39:12.140Z,17.50
2023-01-01T05:41:39.943Z,17.45
2023-01-01T05:44:09.122Z,15.93
2023-01-01T05:46:36.635Z,15.93
2023-01-01T05:49:04.272Z,17.27
2023-01-01T05:53:58.844Z,14.82
2023-01-01T05:56:26.687Z,16.13
2023-01-01T05:58:53.946Z,15.80
2023-01-01T06:01:26.546Z,14.65
2023-01-01T06:03:54.872Z,15.15
2023-01-01T06:06:28.580Z,14.93
2023-01-01T06:09:01.343Z,15.65
2023-01-01T06:11:29.143Z,15.30
2023-01-01T06:13:58.197Z,14.88
2023-01-01T06:16:25.961Z,15.38
2023-01-01T06:18:52.850Z,15.82
2023-01-01T06:21:22.955Z,14.88
2023-01-01T06:23:49.981Z,15.77
2023-01-01T06:26:19.339Z,14.93
2023-01-01T06:28:47.191Z,14.63
2023-01-01T06:31:16.442Z,15.25
2023-01-01T06:33:43.899Z,15.57
2023-01-01T06:36:12.866Z,16.65
2023-01-01T06:38:42.227Z,15.15
2023-01-01T06:41:12.249Z,16.17
2023-01-01T06:43:39.449Z,15.98
2023-01-01T06:46:12.069Z,16.63
2023-01-01T06:48:38.906Z,16.55
2023-01-01T06:51:14.768Z,16.67
2023-01-01T06:53:41.639Z,17.08
2023-01-01T06:56:08.951Z,15.85
2023-01-01T06:58:35.995Z,16.40
2023-01-01T07:01:17.313Z,15.02
2023-01-01T07:03:49.707Z,15.38
2023-01-01T07:06:16.525Z,16.15
2023-01-01T07:08:43.332Z,14.25
2023-01-01T07:11:10.117Z,14.90
2023-01-01T07:13:36.979Z,14.57
2023-01-01T07:16:10.288Z,15.57
2023-01-01T07:18:39.429Z,16.75
2023-01-01T07:21:24.971Z,15.15
2023-01-01T07:23:58.848Z,16.67
2023-01-01T07:26:27.115Z,15.23
2023-01-01T07:28:54.469Z,14.63
2023-01-01T07:31:24.545Z,14.65
2023-01-01T07:33:51.377Z,13.90
2023-01-01T07:36:18.182Z,14.02
2023-01-01T07:38:47.805Z,13.45
2023-01-01T07:41:14.634Z,12.82
2023-01-01T07:43:41.550Z,12.60
2023-01-01T07:46:12.514Z,11.38
2023-01-01T07:48:40.279Z,12.30
2023-01-01T07:51:07.239Z,11.35
2023-01-01T07:53:34.286Z,12.18
2023-01-01T07:56:01.090Z,12.57
2023-01-01T07:58:27.863Z,11.23
2023-01-01T08:00:54.699Z,12.15
2023-01-01T08:03:21.644Z,11.98
2023-01-01T08:05:48.721Z,10.30
2023-01-01T08:08:15.553Z,10.30
2023-01-01T08:10:42.334Z,10.70
2023-01-01T08:13:09.349Z,10.45
2023-01-01T08:15:36.254Z,10.30
2023-01-01T08:18:05.220Z,10.10
2023-01-01T08:20:33.499Z,9.95
2023-01-01T08:23:07.138Z,9.38
2023-01-01T08:25:34.982Z,9.57
2023-01-01T08:28:01.838Z,9.40
2023-01-01T08:30:28.789Z,9.45
2023-01-01T08:32:55.610Z,9.52
2023-01-01T08:35:22.368Z,9.43
2023-01-01T08:37:49.136Z,9.27
2023-01-01T08:40:16.239Z,8.85
2023-01-01T08:42:43.130Z,8.98
2023-01-01T08:45:10.536Z,9.48
2023-01-01T08:47:37.397Z,9.38
2023-01-01T08:50:04.797Z,8.52
2023-01-01T08:52:32.182Z,8.60
2023-01-01T08:54:58.989Z,8.65
2023-01-01T08:57:26.508Z,8.02
2023-01-01T08:59:53.267Z,7.68
2023-01-01T09:02:20.185Z,10.05
2023-01-01T09:04:47.025Z,12.75
2023-01-01T09:07:13.782Z,10.23
2023-01-01T09:09:40.601Z,10.45
2023-01-01T09:12:09.266Z,9.90
2023-01-01T09:14:36.068Z,14.70
2023-01-01T09:17:03.205Z,8.60
2023-01-01T09:19:30.079Z,8.45
2023-01-01T09:21:57.235Z,7.75
2023-01-01T09:24:24.209Z,7.45
2023-01-01T09:26:51.010Z,6.20
2023-01-01T09:29:18.760Z,5.68
2023-01-01T09:31:46.044Z,6.70
2023-01-01T09:34:12.984Z,6.00
2023-01-01T09:36:40.127Z,6.13
2023-01-01T09:39:06.932Z,6.15
2023-01-01T09:41:57.678Z,5.97
2023-01-01T09:44:33.259Z,5.72
2023-01-01T09:47:03.571Z,6.10
2023-01-01T09:49:43.793Z,6.20
2023-01-01T09:52:14.209Z,6.85
2023-01-01T09:54:47.764Z,7.30
2023-01-01T09:57:19.825Z,5.93
2023-01-01T09:59:47.007Z,5.45
2023-01-01T10:02:45.603Z,5.28
2023-01-01T10:05:43.779Z,5.10
2023-01-01T10:08:41.435Z,5.38
2023-01-01T10:11:12.898Z,4.95
2023-01-01T10:13:43.284Z,4.93
2023-01-01T10:16:31.642Z,4.60
2023-01-01T10:19:11.770Z,3.90
2023-01-01T10:21:45.100Z,4.53
2023-01-01T10:24:52.217Z,4.57
2023-01-01T10:27:26.968Z,4.18
2023-01-01T10:29:59.554Z,4.13
2023-01-01T10:32:35.989Z,4.00
2023-01-01T10:35:11.129Z,3.70
2023-01-01T10:37:38.192Z,3.95
2023-01-01T10:40:16.319Z,3.28
2023-01-01T10:42:47.114Z,3.30
2023-01-01T10:45:16.864Z,3.60
2023-01-01T10:48:17.024Z,3.83
2023-01-01T10:50:49.335Z,3.83
2023-01-01T10:53:29.798Z,3.15
2023-01-01T10:56:06.677Z,3.05
2023-01-01T10:58:56.958Z,3.13
2023-01-01T11:01:29.807Z,2.92
2023-01-01T11:03:56.589Z,2.90
2023-01-01T11:06:26.705Z,3.25
2023-01-01T11:08:56.522Z,2.63
2023-01-01T11:11:42.418Z,2.83
2023-01-01T11:14:21.109Z,2.97
2023-01-01T11:16:49.001Z,2.88
2023-01-01T11:19:33.461Z,2.92
2023-01-01T11:22:02.158Z,3.22
2023-01-01T11:24:31.290Z,3.22
2023-01-01T11:27:25.194Z,2.60
2023-01-01T11:29:54.613Z,2.47
2023-01-01T11:32:41.727Z,2.70
2023-01-01T11:35:18.795Z,2.60
2023-01-01T11:37:47.784Z,2.75
2023-01-01T11:40:28.632Z,2.90
2023-01-01T11:43:00.771Z,2.72
2023-01-01T11:45:38.151Z,2.80
2023-01-01T11:48:23.819Z,3.13
2023-01-01T11:50:56.024Z,2.55
2023-01-01T11:53:25.799Z,3.05
2023-01-01T11:56:21.796Z,2.72
2023-01-01T11:58:57.287Z,2.65
2023-01-01T12:01:43.086Z,2.97
2023-01-01T12:04:22.638Z,3.10
2023-01-01T12:06:59.995Z,2.92
2023-01-01T12:09:53.389Z,2.65
2023-01-01T12:12:51.885Z,3.10
2023-01-01T12:15:37.807Z,2.65
2023-01-01T12:18:32.968Z,2.70
2023-01-01T12:21:10.709Z,2.42
2023-01-01T12:23:37.593Z,1.92
2023-01-01T12:26:15.202Z,2.25
2023-01-01T12:29:14.309Z,2.00
2023-01-01T12:32:07.067Z,3.10
2023-01-01T12:34:48.992Z,2.33
2023-01-01T12:37:57.589Z,2.33
2023-01-01T12:40:25.015Z,2.65
2023-01-01T12:43:04.946Z,2.10
2023-01-01T12:45:41.359Z,2.22
2023-01-01T12:48:38.453Z,2.25
2023-01-01T12:51:13.991Z,2.10
2023-01-01T12:54:18.934Z,2.33
2023-01-01T12:57:14.995Z,2.30
2023-01-01T12:59:47.282Z,2.78
2023-01-01T13:02:20.133Z,2.40
2023-01-01T13:04:49.842Z,2.45
2023-01-01T13:07:23.877Z,2.47
2023-01-01T13:09:50.960Z,2.10
2023-01-01T13:12:21.330Z,1.92
2023-01-01T13:14:51.965Z,2.10
2023-01-01T13:17:18.742Z,2.20
2023-01-01T13:19:45.580Z,2.40
2023-01-01T13:22:27.618Z,2.40
2023-01-01T13:25:06.477Z,2.17
2023-01-01T13:27:58.061Z,1.95
2023-01-01T13:30:37.469Z,2.42
2023-01-01T13:33:27.257Z,2.13
2023-01-01T13:36:09.767Z,1.70
2023-01-01T13:38:45.951Z,2.35
2023-01-01T13:41:37.818Z,1.98
2023-01-01T13:44:04.544Z,2.42
2023-01-01T13:46:43.545Z,1.80
2023-01-01T13:49:30.295Z,2.15
2023-01-01T13:52:15.488Z,1.90
2023-01-01T13:55:20.177Z,1.83
2023-01-01T13:58:05.666Z,1.88
2023-01-01T14:00:54.897Z,1.80
2023-01-01T14:03:24.609Z,2.40
2023-01-01T14:06:01.783Z,2.20
2023-01-01T14:08:33.394Z,2.45
2023-01-01T14:11:02.291Z,2.45
2023-01-01T14:13:32.377Z,2.20
2023-01-01T14:16:02.969Z,2.15
2023-01-01T14:18:38.257Z,2.17
2023-01-01T14:21:11.308Z,2.25
2023-01-01T14:23:46.728Z,2.10
2023-01-01T14:26:16.771Z,2.08
2023-01-01T14:28:44.141Z,2.10
2023-01-01T14:31:17.591Z,2.22
2023-01-01T14:33:44.776Z,2.25
2023-01-01T14:36:20.647Z,1.92
2023-01-01T14:38:49.736Z,2.13
2023-01-01T14:41:26.551Z,1.92
2023-01-01T14:43:57.243Z,1.95
2023-01-01T14:46:26.919Z,2.25
2023-01-01T14:48:57.899Z,2.20
2023-01-01T14:51:30.555Z,2.45
2023-01-01T14:54:03.160Z,3.00
2023-01-01T14:56:36.318Z,3.08
2023-01-01T14:59:24.475Z,2.10
2023-01-01T15:02:17.378Z,2.80
2023-01-01T15:04:44.607Z,2.83
2023-01-01T15:07:29.425Z,2.58
2023-01-01T15:10:02.263Z,2.50
2023-01-01T15:12:30.065Z,2.70
2023-01-01T15:14:58.293Z,2.92
2023-01-01T15:17:26.452Z,2.50
2023-01-01T15:20:06.457Z,2.90
2023-01-01T15:22:35.429Z,3.40
2023-01-01T15:25:03.384Z,3.17
2023-01-01T15:27:33.751Z,2.83
2023-01-01T15:30:01.695Z,2.90
2023-01-01T15:32:31.968Z,2.70
2023-01-01T15:35:18.700Z,2.47
2023-01-01T15:38:22.778Z,2.60
2023-01-01T15:40:53.477Z,2.33
2023-01-01T15:43:30.873Z,2.33
2023-01-01T15:46:17.535Z,2.10
2023-01-01T15:48:52.527Z,2.30
2023-01-01T15:51:22.436Z,2.33
2023-01-01T15:54:01.496Z,2.33
2023-01-01T15:56:31.889Z,2.70
2023-01-01T15:59:08.859Z,2.63
2023-01-01T16:01:39.085Z,2.75
2023-01-01T16:04:17.650Z,2.60
2023-01-01T16:06:49.465Z,2.67
2023-01-01T16:09:17.980Z,2.50
2023-01-01T16:11:45.432Z,2.40
2023-01-01T16:14:12.345Z,2.55
2023-01-01T16:16:40.068Z,2.97
2023-01-01T16:19:16.646Z,2.60
2023-01-01T16:21:43.876Z,4.65
2023-01-01T16:24:15.810Z,4.30
2023-01-01T16:26:43.191Z,4.00
2023-01-01T16:29:10.040Z,2.97
2023-01-01T16:31:37.841Z,3.03
2023-01-01T16:34:05.333Z,4.45
2023-01-01T16:36:32.394Z,3.10
2023-01-01T16:38:59.447Z,2.95
2023-01-01T16:41:28.930Z,3.00
2023-01-01T16:43:55.965Z,2.70
2023-01-01T16:46:22.767Z,2.42
2023-01-01T16:48:49.627Z,2.92
2023-01-01T16:51:23.673Z,2.75
2023-01-01T16:53:50.653Z,2.53
2023-01-01T16:56:17.740Z,3.08
2023-01-01T16:58:50.009Z,2.60
2023-01-01T17:01:19.271Z,2.88
2023-01-01T17:03:46.436Z,2.55
2023-01-01T17:06:14.003Z,3.35
2023-01-01T17:08:41.205Z,2.70
2023-01-01T17:11:13.839Z,3.03
2023-01-01T17:13:45.983Z,2.53
2023-01-01T17:16:21.326Z,3.65
2023-01-01T17:19:14.437Z,3.00
2023-01-01T17:21:39.814Z,3.00
2023-01-01T17:24:07.348Z,3.05
2023-01-01T17:26:34.341Z,2.78
2023-01-01T17:29:02.914Z,3.08
2023-01-01T17:31:30.155Z,3.70
2023-01-01T17:33:57.764Z,3.50
2023-01-01T17:36:27.008Z,4.07
2023-01-01T17:38:53.949Z,3.33
2023-01-01T17:41:20.734Z,3.42
2023-01-01T17:43:50.632Z,3.47
2023-01-01T17:46:24.022Z,3.72
2023-01-01T17:48:51.781Z,3.25
2023-01-01T17:51:19.396Z,2.90
2023-01-01T17:53:47.189Z,3.38
2023-01-01T17:56:17.052Z,3.05
2023-01-01T17:58:45.328Z,2.75
2023-01-01T18:01:24.574Z,3.45
2023-01-01T18:04:03.198Z,3.58
2023-01-01T18:06:31.624Z,3.35
2023-01-01T18:09:00.486Z,3.40
2023-01-01T18:11:29.158Z,2.67
2023-01-01T18:13:57.293Z,2.80
2023-01-01T18:16:24.858Z,3.33
2023-01-01T18:18:52.009Z,3.45
2023-01-01T18:21:22.340Z,3.50
2023-01-01T18:23:54.803Z,2.95
2023-01-01T18:26:28.133Z,4.10
2023-01-01T18:28:59.975Z,3.70
2023-01-01T18:31:28.322Z,3.58
2023-01-01T18:33:55.513Z,3.40
2023-01-01T18:36:25.759Z,3.38
2023-01-01T18:39:01.237Z,3.38
2023-01-01T18:41:55.561Z,3.28
2023-01-01T18:44:28.776Z,3.28
2023-01-01T18:47:04.015Z,2.72
2023-01-01T18:49:31.937Z,3.25
2023-01-01T18:52:07.594Z,2.85
2023-01-01T18:54:35.240Z,2.90
2023-01-01T18:57:19.430Z,3.10
2023-01-01T18:59:49.411Z,3.10
2023-01-01T19:02:34.361Z,2.70
2023-01-01T19:05:26.915Z,2.88
2023-01-01T19:08:03.122Z,2.70
2023-01-01T19:10:42.505Z,3.38
2023-01-01T19:13:24.181Z,2.40
2023-01-01T19:15:59.869Z,2.65
2023-01-01T19:18:31.587Z,2.55
2023-01-01T19:21:11.530Z,3.35
2023-01-01T19:23:52.332Z,3.10
2023-01-01T19:26:25.828Z,3.28
2023-01-01T19:28:55.153Z,3.65
2023-01-01T19:31:22.257Z,3.08
2023-01-01T19:33:49.371Z,3.35
2023-01-01T19:36:16.193Z,2.70
2023-01-01T19:38:44.071Z,3.03
2023-01-01T19:41:11.639Z,3.33
2023-01-01T19:43:38.792Z,3.33
2023-01-01T19:46:05.644Z,4.13
2023-01-01T19:48:32.476Z,3.45
2023-01-01T19:50:59.376Z,3.25
2023-01-01T19:53:26.249Z,3.67
2023-01-01T19:55:53.058Z,3.33
2023-01-01T19:58:20.017Z,2.75
2023-01-01T20:00:47.155Z,2.90
2023-01-01T20:06:02.870Z,2.80
2023-01-01T20:08:31.039Z,3.38
2023-01-01T20:10:58.131Z,2.72
2023-01-01T20:13:25.512Z,2.90
2023-01-01T20:15:52.553Z,2.75
2023-01-01T20:18:19.533Z,2.22
2023-01-01T20:21:05.700Z,2.80
2023-01-01T20:23:32.693Z,2.83
2023-01-01T20:25:59.484Z,2.35
2023-01-01T20:28:45.110Z,2.75
2023-01-01T20:31:12.013Z,2.47
2023-01-01T20:33:38.935Z,2.20
2023-01-01T20:36:24.389Z,2.53
2023-01-01T20:38:51.159Z,2.13
2023-01-01T20:41:23.876Z,2.75
2023-01-01T20:43:55.990Z,2.72
2023-01-01T20:46:25.246Z,2.85
2023-01-01T20:48:53.295Z,3.03
2023-01-01T20:51:20.127Z,3.05
2023-01-01T20:53:47.141Z,2.65
2023-01-01T20:56:14.328Z,3.10
2023-01-01T20:58:47.624Z,2.50
2023-01-01T21:01:16.057Z,2.28
2023-01-01T21:03:42.957Z,2.20
2023-01-01T21:06:09.825Z,2.42
2023-01-01T21:08:36.599Z,2.50
2023-01-01T21:11:04.035Z,2.05
2023-01-01T21:13:30.969Z,2.13
2023-01-01T21:16:07.191Z,2.53
2023-01-01T21:18:34.980Z,2.22
2023-01-01T21:21:01.848Z,2.55
2023-01-01T21:23:29.680Z,2.30
2023-01-01T21:25:57.107Z,2.53
2023-01-01T21:28:28.620Z,2.63
2023-01-01T21:30:56.930Z,2.80
2023-01-01T21:33:27.177Z,2.22
2023-01-01T21:35:54.401Z,2.45
2023-01-01T21:38:29.468Z,2.72
2023-01-01T21:41:00.153Z,2.65
2023-01-01T21:43:29.905Z,3.25
2023-01-01T21:46:02.192Z,2.55
2023-01-01T21:48:30.411Z,2.67
2023-01-01T21:50:57.712Z,2.42
2023-01-01T21:53:27.527Z,2.88
2023-01-01T21:55:56.476Z,2.53
2023-01-01T21:58:50.982Z,2.67
2023-01-01T22:01:37.023Z,2.97
2023-01-01T22:04:09.633Z,2.15
2023-01-01T22:06:43.013Z,3.13
2023-01-01T22:09:22.310Z,2.35
2023-01-01T22:11:53.346Z,3.08
2023-01-01T22:14:25.436Z,2.45
2023-01-01T22:16:56.104Z,2.60
2023-01-01T22:19:24.521Z,3.25
2023-01-01T22:21:52.354Z,2.88
2023-01-01T22:24:26.439Z,2.22
2023-01-01T22:26:53.647Z,2.50
2023-01-01T22:29:24.430Z,3.08
2023-01-01T22:32:03.043Z,2.83
2023-01-01T22:34:32.201Z,2.63
2023-01-01T22:37:00.126Z,2.60
2023-01-01T22:39:30.243Z,3.10
2023-01-01T22:41:57.177Z,2.83
2023-01-01T22:44:26.557Z,2.85
2023-01-01T22:46:58.440Z,2.50
2023-01-01T22:49:28.160Z,2.65
2023-01-01T22:51:56.261Z,2.75
2023-01-01T22:54:23.779Z,2.97
2023-01-01T22:56:50.584Z,3.00
2023-01-01T22:59:17.416Z,3.10
2023-01-01T23:01:44.673Z,2.83
2023-01-01T23:04:11.489Z,3.00
2023-01-01T23:06:38.771Z,2.95
2023-01-01T23:09:05.901Z,3.40
2023-01-01T23:11:32.760Z,3.20
2023-01-01T23:14:17.992Z,2.45
2023-01-01T23:16:44.880Z,2.88
2023-01-01T23:19:11.607Z,3.13
2023-01-01T23:21:40.925Z,2.80
2023-01-01T23:24:14.254Z,3.03
2023-01-01T23:26:42.254Z,3.00
2023-01-01T23:29:11.193Z,2.67
2023-01-01T23:31:40.209Z,2.83
2023-01-01T23:34:07.304Z,3.05
2023-01-01T23:36:34.720Z,2.97
2023-01-01T23:39:01.531Z,2.58
2023-01-01T23:41:28.339Z,2.80
2023-01-01T23:43:55.098Z,3.08
2023-01-01T23:46:22.100Z,3.08
2023-01-01T23:48:49.350Z,3.05
2023-01-01T23:51:17.267Z,2.83
2023-01-01T23:53:44.183Z,3.30
2023-01-01T23:56:11.361Z,2.67
2023-01-01T23:58:38.187Z,3.10
